Silver City, NM

6:19 PM MDT on October 18, 2019 (GMT -0600)
Grant County

Weather History for KSVC - September, 2019

Change the Weather History Date:

Saturday, September 21, 2019

  Actual Average (WUND) Record (WUND)
Temperature  
Mean Temperature 68 °F -  
Max Temperature 81 °F - - (-1)
Min Temperature 54 °F - - (-1)
Cooling Degree Days 2    
Growing Degree Days 18 (Base 50)    
Moisture  
Dew Point 46 °F    
Average Humidity 50    
Maximum Humidity 82    
Minimum Humidity 24    
Precipitation  
Precipitation 0.00 in - - ()
Sea Level Pressure  
Sea Level Pressure 30.11 in    
Wind  
Wind Speed 9 mph (WNW)    
Max Wind Speed 21 mph    
Max Gust Speed 24 mph    
Visibility 10 miles    
Events      
Averages and records for this station are not official NWS values.
T = Trace of Precipitation, MM = Missing Value Source: NWS Daily Summary

Daily Weather History Graph

Daily Weather History Graph

Search for Another Location

Airport or City:

Astronomy

Sep. 21, 2019 Rise Set
Actual Time 7:00 AM MDT 7:10 PM MDT
Civil Twilight 6:35 AM MDT 7:35 PM MDT
Nautical Twilight 6:06 AM MDT 8:04 PM MDT
Astronomical Twilight 5:37 AM MDT 8:33 PM MDT
Moon No Moon Rise 1:48 PM MDT (9/21)
Length of Visible Light 12h 59m
Length of Day
12h 10m
Waning Gibbous, 54% of the Moon is Illuminated
Sep 21
Waning Gibbous
Sep 21
Last Quarter
Sep 28
New
Oct 5
First Quarter
Oct 13
Full

Hourly Weather History & Observations

Time (MDT) Temp. Dew Point Humidity Pressure Visibility Wind Dir Wind Speed Gust Speed Precip Events Conditions
12:15 AM 57.2 °F 44.8 °F 63% 30.08 in 10.0 mi NNW 9.2 mph - N/A   Mostly Cloudy
12:35 AM 57.6 °F 44.2 °F 61% 30.08 in 10.0 mi NNW 10.4 mph - N/A   Overcast
12:55 AM 57.0 °F 43.7 °F 61% 30.08 in 10.0 mi NNW 9.2 mph - N/A   Mostly Cloudy
1:15 AM 57.4 °F 43.7 °F 60% 30.08 in 10.0 mi NNW 10.4 mph - N/A   Clear
1:35 AM 58.1 °F 42.8 °F 57% 30.08 in 10.0 mi North 10.4 mph - N/A   Clear
1:55 AM 59.2 °F 42.4 °F 54% 30.09 in 10.0 mi NNW 8.1 mph - N/A   Scattered Clouds
2:15 AM 58.1 °F 42.4 °F 56% 30.09 in 10.0 mi NNW 6.9 mph - N/A   Scattered Clouds
2:35 AM 57.0 °F 42.4 °F 58% 30.09 in 10.0 mi NNW 9.2 mph - N/A   Scattered Clouds
2:55 AM 60.3 °F 41.4 °F 50% 30.09 in 10.0 mi NW 10.4 mph - N/A   Clear
3:15 AM 58.1 °F 42.1 °F 55% 30.09 in 10.0 mi NNW 10.4 mph - N/A   Clear
3:35 AM 59.0 °F 41.5 °F 52% 30.09 in 10.0 mi NNW 12.7 mph - N/A   Clear
3:55 AM 59.0 °F 41.2 °F 52% 30.08 in 10.0 mi NNW 10.4 mph - N/A   Clear
4:15 AM 57.9 °F 41.7 °F 55% 30.09 in 10.0 mi NW 6.9 mph - N/A   Clear
4:35 AM 56.3 °F 42.3 °F 59% 30.10 in 10.0 mi NW 3.5 mph - N/A   Clear
4:55 AM 54.3 °F 42.3 °F 64% 30.10 in 10.0 mi NNW 5.8 mph - N/A   Clear
5:15 AM 54.9 °F 42.4 °F 63% 30.10 in 10.0 mi NNW 8.1 mph - N/A   Clear
5:35 AM 56.5 °F 41.7 °F 58% 30.10 in 10.0 mi NW 8.1 mph - N/A   Scattered Clouds
5:55 AM 55.0 °F 42.3 °F 62% 30.11 in 10.0 mi NW 8.1 mph - N/A   Clear
6:15 AM 55.4 °F 41.9 °F 60% 30.11 in 10.0 mi NNW 10.4 mph - N/A   Clear
6:35 AM 55.6 °F 41.4 °F 59% 30.10 in 10.0 mi NNW 9.2 mph - N/A   Clear
6:55 AM 55.2 °F 41.2 °F 59% 30.11 in 10.0 mi NNW 9.2 mph - N/A   Clear
7:15 AM 56.1 °F 41.2 °F 57% 30.12 in 10.0 mi WNW 8.1 mph - N/A   Clear
7:35 AM 59.0 °F 41.4 °F 52% 30.12 in 10.0 mi NW 8.1 mph - N/A   Clear
7:55 AM 61.5 °F 40.6 °F 46% 30.13 in 10.0 mi WNW 9.2 mph - N/A   Clear
8:15 AM 64.2 °F 40.3 °F 41% 30.13 in 10.0 mi NW 8.1 mph - N/A   Clear
8:35 AM 66.2 °F 40.1 °F 38% 30.13 in 10.0 mi NW 10.4 mph - N/A   Clear
9:15 AM 71.2 °F 39.9 °F 32% 30.14 in 10.0 mi NNW 8.1 mph - N/A   Clear
9:35 AM 73.4 °F 42.6 °F 33% 30.14 in 10.0 mi NW 11.5 mph - N/A   Clear
9:55 AM 73.8 °F 44.2 °F 35% 30.14 in 10.0 mi NW 8.1 mph - N/A   Clear
10:15 AM 74.3 °F 44.1 °F 34% 30.16 in 10.0 mi WNW 5.8 mph - N/A   Clear
10:35 AM 74.7 °F 46.2 °F 36% 30.16 in 10.0 mi West 12.7 mph - N/A   Clear
10:55 AM 74.8 °F 46.2 °F 36% 30.16 in 10.0 mi West 8.1 mph - N/A   Scattered Clouds
11:15 AM 76.3 °F 45.5 °F 33% 30.16 in 10.0 mi WSW 6.9 mph - N/A   Scattered Clouds
11:35 AM 76.5 °F 45.7 °F 33% 30.15 in 10.0 mi West 8.1 mph - N/A   Mostly Cloudy
11:55 AM 76.6 °F 45.7 °F 33% 30.15 in 10.0 mi SSW 3.5 mph - N/A   Mostly Cloudy
12:15 PM 77.7 °F 45.3 °F 32% 30.15 in 10.0 mi SW 9.2 mph - N/A   Scattered Clouds
12:35 PM 78.8 °F 45.1 °F 30% 30.14 in 10.0 mi SW 9.2 mph 16.1 mph N/A   Clear
12:55 PM 77.9 °F 45.3 °F 31% 30.13 in 10.0 mi West 8.1 mph - N/A   Scattered Clouds
1:15 PM 78.4 °F 45.1 °F 31% 30.12 in 10.0 mi Calm Calm - N/A   Scattered Clouds
1:35 PM 79.0 °F 45.3 °F 30% 30.12 in 10.0 mi WNW 6.9 mph - N/A   Scattered Clouds
1:55 PM 79.2 °F 43.5 °F 28% 30.10 in 10.0 mi WNW 3.5 mph - N/A   Mostly Cloudy
2:15 PM 79.0 °F 43.2 °F 28% 30.10 in 10.0 mi SW 11.5 mph 16.1 mph N/A   Scattered Clouds
2:35 PM 78.8 °F 41.4 °F 26% 30.09 in 10.0 mi West 12.7 mph - N/A   Scattered Clouds
2:55 PM 79.5 °F 41.2 °F 25% 30.09 in 10.0 mi West 13.8 mph 17.3 mph N/A   Scattered Clouds
3:15 PM 80.2 °F 40.3 °F 24% 30.08 in 10.0 mi WSW 13.8 mph 18.4 mph N/A   Scattered Clouds
3:35 PM 81.0 °F 40.8 °F 24% 30.08 in 10.0 mi WSW 13.8 mph 18.4 mph N/A   Mostly Cloudy
3:55 PM 80.8 °F 41.7 °F 25% 30.06 in 10.0 mi SW 10.4 mph 23.0 mph N/A   Mostly Cloudy
4:15 PM 79.2 °F 43.9 °F 29% 30.06 in 10.0 mi West 11.5 mph 16.1 mph N/A   Mostly Cloudy
4:35 PM 80.2 °F 44.8 °F 29% 30.06 in 10.0 mi WSW 8.1 mph 16.1 mph N/A   Mostly Cloudy
4:55 PM 78.8 °F 43.3 °F 28% 30.06 in 10.0 mi West 8.1 mph - N/A   Overcast
5:15 PM 76.1 °F 51.1 °F 41% 30.06 in 10.0 mi West 4.6 mph - N/A   Overcast
5:35 PM 75.2 °F 53.6 °F 47% 30.06 in 10.0 mi South 19.6 mph 23.0 mph N/A   Overcast
5:55 PM 73.8 °F 54.0 °F 50% 30.06 in 10.0 mi South 20.7 mph 24.2 mph N/A   Overcast
6:15 PM 72.7 °F 54.7 °F 53% 30.07 in 10.0 mi SSW 13.8 mph 21.9 mph N/A   Scattered Clouds
6:35 PM 71.8 °F 55.8 °F 57% 30.08 in 10.0 mi SSW 15.0 mph 19.6 mph N/A   Clear
6:55 PM 71.1 °F 55.8 °F 58% 30.08 in 10.0 mi SSW 17.3 mph 21.9 mph N/A   Clear
7:15 PM 69.1 °F 55.6 °F 62% 30.08 in 10.0 mi South 15.0 mph - N/A   Clear
7:35 PM 68.0 °F 55.4 °F 64% 30.09 in 10.0 mi South 13.8 mph - N/A   Clear
7:55 PM 67.1 °F 56.1 °F 68% 30.10 in 10.0 mi South 11.5 mph - N/A   Clear
8:15 PM 66.6 °F 55.6 °F 68% 30.10 in 10.0 mi SSE 9.2 mph - N/A   Clear
8:35 PM 66.2 °F 55.2 °F 68% 30.11 in 10.0 mi ESE 8.1 mph - N/A   Scattered Clouds
8:55 PM 65.3 °F 55.0 °F 69% 30.11 in 10.0 mi SE 6.9 mph - N/A   Clear
9:15 PM 64.8 °F 54.9 °F 70% 30.12 in 10.0 mi SE 5.8 mph - N/A   Clear
9:35 PM 63.1 °F 55.0 °F 75% 30.12 in 10.0 mi SE 5.8 mph - N/A   Scattered Clouds
9:55 PM 64.0 °F 55.8 °F 74% 30.13 in 10.0 mi ESE 5.8 mph - N/A   Mostly Cloudy
10:15 PM 62.6 °F 55.4 °F 77% 30.14 in 10.0 mi East 5.8 mph - N/A   Scattered Clouds
10:35 PM 62.6 °F 55.6 °F 78% 30.14 in 10.0 mi SE 5.8 mph - N/A   Scattered Clouds
10:55 PM 62.2 °F 56.1 °F 80% 30.14 in 10.0 mi East 4.6 mph - N/A   Scattered Clouds
11:15 PM 61.3 °F 55.6 °F 81% 30.15 in 10.0 mi ESE 4.6 mph - N/A   Scattered Clouds
11:35 PM 61.0 °F 55.6 °F 82% 30.15 in 10.0 mi Calm Calm - N/A   Clear
11:55 PM 61.3 °F 55.9 °F 82% 30.15 in 10.0 mi NE 3.5 mph - N/A   Clear